sensor_id;sensor_type;location;lat;lon;timestamp;temperature;humidity
23079;DHT22;11707;50.830;4.364;2023-10-31T00:00:44;11.50;99.90
23079;DHT22;11707;50.830;4.364;2023-10-31T00:03:12;11.50;99.90
23079;DHT22;11707;50.830;4.364;2023-10-31T00:05:40;11.60;99.90
23079;DHT22;11707;50.830;4.364;2023-10-31T00:08:06;11.70;99.90
23079;DHT22;11707;50.830;4.364;2023-10-31T00:10:31;11.60;99.90
23079;DHT22;11707;50.830;4.364;2023-10-31T00:12:57;11.60;99.90
23079;DHT22;11707;50.830;4.364;2023-10-31T00:15:25;11.70;99.90
23079;DHT22;11707;50.830;4.364;2023-10-31T00:17:55;11.60;99.90
23079;DHT22;11707;50.830;4.364;2023-10-31T00:20:21;11.60;99.90
23079;DHT22;11707;50.830;4.364;2023-10-31T00:22:47;11.70;99.90
23079;DHT22;11707;50.830;4.364;2023-10-31T00:25:13;11.70;99.90
23079;DHT22;11707;50.830;4.364;2023-10-31T00:27:38;11.70;99.90
23079;DHT22;11707;50.830;4.364;2023-10-31T00:30:05;11.60;99.90
23079;DHT22;11707;50.830;4.364;2023-10-31T00:32:30;11.60;99.90
23079;DHT22;11707;50.830;4.364;2023-10-31T00:34:56;11.60;99.90
23079;DHT22;11707;50.830;4.364;2023-10-31T00:37:22;11.50;99.90
23079;DHT22;11707;50.830;4.364;2023-10-31T00:39:47;11.60;99.90
23079;DHT22;11707;50.830;4.364;2023-10-31T00:42:13;11.70;99.90
23079;DHT22;11707;50.830;4.364;2023-10-31T00:44:40;11.60;99.90
23079;DHT22;11707;50.830;4.364;2023-10-31T00:47:05;11.70;99.90
23079;DHT22;11707;50.830;4.364;2023-10-31T00:49:33;11.80;99.90
23079;DHT22;11707;50.830;4.364;2023-10-31T00:51:59;11.80;99.90
23079;DHT22;11707;50.830;4.364;2023-10-31T00:54:27;11.80;99.90
23079;DHT22;11707;50.830;4.364;2023-10-31T00:56:52;11.70;99.90
23079;DHT22;11707;50.830;4.364;2023-10-31T00:59:19;11.80;99.90
23079;DHT22;11707;50.830;4.364;2023-10-31T01:01:45;11.70;99.90
23079;DHT22;11707;50.830;4.364;2023-10-31T01:04:11;11.60;99.90
23079;DHT22;11707;50.830;4.364;2023-10-31T01:06:41;11.60;99.90
23079;DHT22;11707;50.830;4.364;2023-10-31T01:09:07;11.60;99.90
23079;DHT22;11707;50.830;4.364;2023-10-31T01:11:33;11.60;99.90
23079;DHT22;11707;50.830;4.364;2023-10-31T01:13:58;11.60;99.90
23079;DHT22;11707;50.830;4.364;2023-10-31T01:16:24;11.50;99.90
23079;DHT22;11707;50.830;4.364;2023-10-31T01:18:50;11.50;99.90
23079;DHT22;11707;50.830;4.364;2023-10-31T01:21:15;11.40;99.90
23079;DHT22;11707;50.830;4.364;2023-10-31T01:23:41;11.30;99.90
23079;DHT22;11707;50.830;4.364;2023-10-31T01:26:07;11.30;99.90
23079;DHT22;11707;50.830;4.364;2023-10-31T01:28:33;11.20;99.90
23079;DHT22;11707;50.830;4.364;2023-10-31T01:31:01;11.20;99.90
23079;DHT22;11707;50.830;4.364;2023-10-31T01:33:27;11.20;99.90
23079;DHT22;11707;50.830;4.364;2023-10-31T01:35:57;11.30;99.90
23079;DHT22;11707;50.830;4.364;2023-10-31T01:38:26;11.40;99.90
23079;DHT22;11707;50.830;4.364;2023-10-31T01:40:52;11.40;99.90
23079;DHT22;11707;50.830;4.364;2023-10-31T01:43:33;11.40;99.90
23079;DHT22;11707;50.830;4.364;2023-10-31T01:45:59;11.40;99.90
23079;DHT22;11707;50.830;4.364;2023-10-31T01:48:30;11.30;99.90
23079;DHT22;11707;50.830;4.364;2023-10-31T01:50:59;11.20;99.90
23079;DHT22;11707;50.830;4.364;2023-10-31T01:53:27;11.20;99.90
23079;DHT22;11707;50.830;4.364;2023-10-31T01:55:54;11.20;99.90
23079;DHT22;11707;50.830;4.364;2023-10-31T01:58:25;11.20;99.90
23079;DHT22;11707;50.830;4.364;2023-10-31T02:00:54;11.10;99.90
23079;DHT22;11707;50.830;4.364;2023-10-31T02:03:20;11.20;99.90
23079;DHT22;11707;50.830;4.364;2023-10-31T02:05:46;11.20;99.90
23079;DHT22;11707;50.830;4.364;2023-10-31T02:08:13;11.20;99.90
23079;DHT22;11707;50.830;4.364;2023-10-31T02:10:38;11.10;99.90
23079;DHT22;11707;50.830;4.364;2023-10-31T02:13:14;11.20;99.90
23079;DHT22;11707;50.830;4.364;2023-10-31T02:15:40;11.20;99.90
23079;DHT22;11707;50.830;4.364;2023-10-31T02:18:07;11.30;99.90
23079;DHT22;11707;50.830;4.364;2023-10-31T02:20:33;11.20;99.90
23079;DHT22;11707;50.830;4.364;2023-10-31T02:23:02;11.10;99.90
23079;DHT22;11707;50.830;4.364;2023-10-31T02:25:28;11.10;99.90
23079;DHT22;11707;50.830;4.364;2023-10-31T02:27:54;11.10;99.90
23079;DHT22;11707;50.830;4.364;2023-10-31T02:30:20;11.10;99.90
23079;DHT22;11707;50.830;4.364;2023-10-31T02:32:46;11.10;99.90
23079;DHT22;11707;50.830;4.364;2023-10-31T02:35:12;11.10;99.90
23079;DHT22;11707;50.830;4.364;2023-10-31T02:37:39;11.20;99.90
23079;DHT22;11707;50.830;4.364;2023-10-31T02:40:05;11.20;99.90
23079;DHT22;11707;50.830;4.364;2023-10-31T02:42:34;11.10;99.90
23079;DHT22;11707;50.830;4.364;2023-10-31T02:44:59;11.10;99.90
23079;DHT22;11707;50.830;4.364;2023-10-31T02:47:25;11.00;99.90
23079;DHT22;11707;50.830;4.364;2023-10-31T02:49:51;10.90;99.90
23079;DHT22;11707;50.830;4.364;2023-10-31T02:52:16;10.80;99.90
23079;DHT22;11707;50.830;4.364;2023-10-31T02:54:42;10.80;99.90
23079;DHT22;11707;50.830;4.364;2023-10-31T02:57:08;10.80;99.90
23079;DHT22;11707;50.830;4.364;2023-10-31T02:59:33;10.80;99.90
23079;DHT22;11707;50.830;4.364;2023-10-31T03:02:01;10.70;99.90
23079;DHT22;11707;50.830;4.364;2023-10-31T03:04:27;10.80;99.90
23079;DHT22;11707;50.830;4.364;2023-10-31T03:06:53;10.90;99.90
23079;DHT22;11707;50.830;4.364;2023-10-31T03:09:19;11.00;99.90
23079;DHT22;11707;50.830;4.364;2023-10-31T03:11:44;11.00;99.90
23079;DHT22;11707;50.830;4.364;2023-10-31T03:14:10;11.00;99.90
23079;DHT22;11707;50.830;4.364;2023-10-31T03:16:36;11.00;99.90
23079;DHT22;11707;50.830;4.364;2023-10-31T03:19:05;10.90;99.90
23079;DHT22;11707;50.830;4.364;2023-10-31T03:21:31;10.80;99.90
23079;DHT22;11707;50.830;4.364;2023-10-31T03:23:57;10.80;99.90
23079;DHT22;11707;50.830;4.364;2023-10-31T03:26:23;10.80;99.90
23079;DHT22;11707;50.830;4.364;2023-10-31T03:28:48;10.80;99.90
23079;DHT22;11707;50.830;4.364;2023-10-31T03:31:15;10.80;99.90
23079;DHT22;11707;50.830;4.364;2023-10-31T03:33:41;10.80;99.90
23079;DHT22;11707;50.830;4.364;2023-10-31T03:36:08;10.80;99.90
23079;DHT22;11707;50.830;4.364;2023-10-31T03:38:36;10.80;99.90
23079;DHT22;11707;50.830;4.364;2023-10-31T03:41:02;10.80;99.90
23079;DHT22;11707;50.830;4.364;2023-10-31T03:43:28;10.80;99.90
23079;DHT22;11707;50.830;4.364;2023-10-31T03:45:54;10.80;99.90
23079;DHT22;11707;50.830;4.364;2023-10-31T03:48:20;10.80;99.90
23079;DHT22;11707;50.830;4.364;2023-10-31T03:50:46;10.80;99.90
23079;DHT22;11707;50.830;4.364;2023-10-31T03:53:12;10.80;99.90
23079;DHT22;11707;50.830;4.364;2023-10-31T03:55:38;10.80;99.90
23079;DHT22;11707;50.830;4.364;2023-10-31T03:58:04;10.80;99.90
23079;DHT22;11707;50.830;4.364;2023-10-31T04:00:32;10.90;99.90
23079;DHT22;11707;50.830;4.364;2023-10-31T04:02:58;11.00;99.90
23079;DHT22;11707;50.830;4.364;2023-10-31T04:05:23;10.90;99.90
23079;DHT22;11707;50.830;4.364;2023-10-31T04:07:49;10.90;99.90
23079;DHT22;11707;50.830;4.364;2023-10-31T04:10:16;10.90;99.90
23079;DHT22;11707;50.830;4.364;2023-10-31T04:12:42;10.90;99.90
23079;DHT22;11707;50.830;4.364;2023-10-31T04:15:08;11.00;99.90
23079;DHT22;11707;50.830;4.364;2023-10-31T04:17:37;11.00;99.90
23079;DHT22;11707;50.830;4.364;2023-10-31T04:20:04;10.90;99.90
23079;DHT22;11707;50.830;4.364;2023-10-31T04:22:30;11.00;99.90
23079;DHT22;11707;50.830;4.364;2023-10-31T04:25:02;10.90;99.90
23079;DHT22;11707;50.830;4.364;2023-10-31T04:27:30;10.90;99.90
23079;DHT22;11707;50.830;4.364;2023-10-31T04:29:58;10.90;99.90
23079;DHT22;11707;50.830;4.364;2023-10-31T04:32:32;10.90;99.90
23079;DHT22;11707;50.830;4.364;2023-10-31T04:35:01;10.90;99.90
23079;DHT22;11707;50.830;4.364;2023-10-31T04:37:26;10.90;99.90
23079;DHT22;11707;50.830;4.364;2023-10-31T04:39:52;11.00;99.90
23079;DHT22;11707;50.830;4.364;2023-10-31T04:42:18;11.00;99.90
23079;DHT22;11707;50.830;4.364;2023-10-31T04:44:45;11.00;99.90
23079;DHT22;11707;50.830;4.364;2023-10-31T04:47:11;10.90;99.90
23079;DHT22;11707;50.830;4.364;2023-10-31T04:49:37;10.80;99.90
23079;DHT22;11707;50.830;4.364;2023-10-31T04:52:03;10.80;99.90
23079;DHT22;11707;50.830;4.364;2023-10-31T04:54:31;10.80;99.90
23079;DHT22;11707;50.830;4.364;2023-10-31T04:56:57;10.70;99.90
23079;DHT22;11707;50.830;4.364;2023-10-31T04:59:22;10.80;99.90
23079;DHT22;11707;50.830;4.364;2023-10-31T05:01:50;10.80;99.90
23079;DHT22;11707;50.830;4.364;2023-10-31T05:04:16;10.80;99.90
23079;DHT22;11707;50.830;4.364;2023-10-31T05:06:42;10.90;99.90
23079;DHT22;11707;50.830;4.364;2023-10-31T05:09:08;10.90;99.90
23079;DHT22;11707;50.830;4.364;2023-10-31T05:11:35;11.00;99.90
23079;DHT22;11707;50.830;4.364;2023-10-31T05:14:01;11.00;99.90
23079;DHT22;11707;50.830;4.364;2023-10-31T05:16:27;11.10;99.90
23079;DHT22;11707;50.830;4.364;2023-10-31T05:18:55;11.10;99.90
23079;DHT22;11707;50.830;4.364;2023-10-31T05:21:24;11.00;99.90
23079;DHT22;11707;50.830;4.364;2023-10-31T05:23:53;10.90;99.90
23079;DHT22;11707;50.830;4.364;2023-10-31T05:26:19;11.00;99.90
23079;DHT22;11707;50.830;4.364;2023-10-31T05:28:45;10.90;99.90
23079;DHT22;11707;50.830;4.364;2023-10-31T05:31:11;10.90;99.90
23079;DHT22;11707;50.830;4.364;2023-10-31T05:33:39;10.90;99.90
23079;DHT22;11707;50.830;4.364;2023-10-31T05:36:05;10.80;99.90
23079;DHT22;11707;50.830;4.364;2023-10-31T05:38:30;10.80;99.90
23079;DHT22;11707;50.830;4.364;2023-10-31T05:40:56;10.90;99.90
23079;DHT22;11707;50.830;4.364;2023-10-31T05:43:22;10.90;99.90
23079;DHT22;11707;50.830;4.364;2023-10-31T05:45:47;11.00;99.90
23079;DHT22;11707;50.830;4.364;2023-10-31T05:48:13;11.00;99.90
23079;DHT22;11707;50.830;4.364;2023-10-31T05:50:41;11.00;99.90
23079;DHT22;11707;50.830;4.364;2023-10-31T05:53:12;11.10;99.90
23079;DHT22;11707;50.830;4.364;2023-10-31T05:55:41;11.00;99.90
23079;DHT22;11707;50.830;4.364;2023-10-31T05:58:06;11.10;99.90
23079;DHT22;11707;50.830;4.364;2023-10-31T06:00:32;11.10;99.90
23079;DHT22;11707;50.830;4.364;2023-10-31T06:03:00;11.00;99.90
23079;DHT22;11707;50.830;4.364;2023-10-31T06:05:26;11.10;99.90
23079;DHT22;11707;50.830;4.364;2023-10-31T06:07:52;11.20;99.90
23079;DHT22;11707;50.830;4.364;2023-10-31T06:10:18;11.30;99.90
23079;DHT22;11707;50.830;4.364;2023-10-31T06:12:44;11.20;99.90
23079;DHT22;11707;50.830;4.364;2023-10-31T06:15:10;11.30;99.90
23079;DHT22;11707;50.830;4.364;2023-10-31T06:17:36;11.40;99.90
23079;DHT22;11707;50.830;4.364;2023-10-31T06:20:02;11.40;99.90
23079;DHT22;11707;50.830;4.364;2023-10-31T06:22:28;11.40;99.90
23079;DHT22;11707;50.830;4.364;2023-10-31T06:24:58;11.40;99.90
23079;DHT22;11707;50.830;4.364;2023-10-31T06:27:24;11.30;99.90
23079;DHT22;11707;50.830;4.364;2023-10-31T06:29:50;11.30;99.90
23079;DHT22;11707;50.830;4.364;2023-10-31T06:32:18;11.30;99.90
23079;DHT22;11707;50.830;4.364;2023-10-31T06:34:44;11.20;99.90
23079;DHT22;11707;50.830;4.364;2023-10-31T06:37:09;11.10;99.90
23079;DHT22;11707;50.830;4.364;2023-10-31T06:39:35;11.00;99.90
23079;DHT22;11707;50.830;4.364;2023-10-31T06:42:00;11.00;99.90
23079;DHT22;11707;50.830;4.364;2023-10-31T06:44:29;11.10;99.90
23079;DHT22;11707;50.830;4.364;2023-10-31T06:46:55;11.10;99.90
23079;DHT22;11707;50.830;4.364;2023-10-31T06:49:20;11.10;99.90
23079;DHT22;11707;50.830;4.364;2023-10-31T06:51:48;11.20;99.90
23079;DHT22;11707;50.830;4.364;2023-10-31T06:54:15;11.20;99.90
23079;DHT22;11707;50.830;4.364;2023-10-31T06:56:41;11.30;99.90
23079;DHT22;11707;50.830;4.364;2023-10-31T06:59:07;11.30;99.90
23079;DHT22;11707;50.830;4.364;2023-10-31T07:01:34;11.40;99.90
23079;DHT22;11707;50.830;4.364;2023-10-31T07:03:59;11.40;99.90
23079;DHT22;11707;50.830;4.364;2023-10-31T07:06:25;11.40;99.90
23079;DHT22;11707;50.830;4.364;2023-10-31T07:08:51;11.30;99.90
23079;DHT22;11707;50.830;4.364;2023-10-31T07:11:19;11.20;99.90
23079;DHT22;11707;50.830;4.364;2023-10-31T07:13:45;11.30;99.90
23079;DHT22;11707;50.830;4.364;2023-10-31T07:16:12;11.30;99.90
23079;DHT22;11707;50.830;4.364;2023-10-31T07:18:40;11.30;99.90
23079;DHT22;11707;50.830;4.364;2023-10-31T07:21:08;11.40;99.90
23079;DHT22;11707;50.830;4.364;2023-10-31T07:23:34;11.50;99.90
23079;DHT22;11707;50.830;4.364;2023-10-31T07:26:00;11.40;99.90
23079;DHT22;11707;50.830;4.364;2023-10-31T07:28:25;11.50;99.90
23079;DHT22;11707;50.830;4.364;2023-10-31T07:30:51;11.40;99.90
23079;DHT22;11707;50.830;4.364;2023-10-31T07:33:17;11.40;99.90
23079;DHT22;11707;50.830;4.364;2023-10-31T07:35:45;11.40;99.90
23079;DHT22;11707;50.830;4.364;2023-10-31T07:38:11;11.40;99.90
23079;DHT22;11707;50.830;4.364;2023-10-31T07:40:36;11.60;99.90
23079;DHT22;11707;50.830;4.364;2023-10-31T07:43:02;11.60;99.90
23079;DHT22;11707;50.830;4.364;2023-10-31T07:45:28;11.70;99.90
23079;DHT22;11707;50.830;4.364;2023-10-31T07:47:53;11.60;99.90
23079;DHT22;11707;50.830;4.364;2023-10-31T07:50:19;11.70;99.90
23079;DHT22;11707;50.830;4.364;2023-10-31T07:52:45;11.70;99.90
23079;DHT22;11707;50.830;4.364;2023-10-31T07:55:12;11.70;99.90
23079;DHT22;11707;50.830;4.364;2023-10-31T07:57:38;11.60;99.90
23079;DHT22;11707;50.830;4.364;2023-10-31T08:00:04;11.50;99.90
23079;DHT22;11707;50.830;4.364;2023-10-31T08:02:30;11.50;99.90
23079;DHT22;11707;50.830;4.364;2023-10-31T08:04:55;11.40;99.90
23079;DHT22;11707;50.830;4.364;2023-10-31T08:07:21;11.40;99.90
23079;DHT22;11707;50.830;4.364;2023-10-31T08:09:49;11.30;99.90
23079;DHT22;11707;50.830;4.364;2023-10-31T08:12:14;11.40;99.90
23079;DHT22;11707;50.830;4.364;2023-10-31T08:14:40;11.40;99.90
23079;DHT22;11707;50.830;4.364;2023-10-31T08:17:06;11.30;99.90
23079;DHT22;11707;50.830;4.364;2023-10-31T08:19:31;11.20;99.90
23079;DHT22;11707;50.830;4.364;2023-10-31T08:21:57;11.30;99.90
23079;DHT22;11707;50.830;4.364;2023-10-31T08:24:23;11.20;99.90
23079;DHT22;11707;50.830;4.364;2023-10-31T08:26:49;11.20;99.90
23079;DHT22;11707;50.830;4.364;2023-10-31T08:29:14;11.10;99.90
23079;DHT22;11707;50.830;4.364;2023-10-31T08:31:40;11.10;99.90
23079;DHT22;11707;50.830;4.364;2023-10-31T08:34:06;11.10;99.90
23079;DHT22;11707;50.830;4.364;2023-10-31T08:36:31;11.00;99.90
23079;DHT22;11707;50.830;4.364;2023-10-31T08:38:57;11.00;99.90
23079;DHT22;11707;50.830;4.364;2023-10-31T08:41:25;11.00;99.90
23079;DHT22;11707;50.830;4.364;2023-10-31T08:43:51;11.00;99.90
23079;DHT22;11707;50.830;4.364;2023-10-31T08:46:17;11.10;99.90
23079;DHT22;11707;50.830;4.364;2023-10-31T08:48:43;11.20;99.90
23079;DHT22;11707;50.830;4.364;2023-10-31T08:51:09;11.10;99.90
23079;DHT22;11707;50.830;4.364;2023-10-31T08:53:35;11.30;99.90
23079;DHT22;11707;50.830;4.364;2023-10-31T08:56:01;11.40;99.90
23079;DHT22;11707;50.830;4.364;2023-10-31T08:58:30;11.50;99.90
23079;DHT22;11707;50.830;4.364;2023-10-31T09:00:56;11.60;99.90
23079;DHT22;11707;50.830;4.364;2023-10-31T09:03:22;11.70;99.90
23079;DHT22;11707;50.830;4.364;2023-10-31T09:05:47;11.90;99.90
23079;DHT22;11707;50.830;4.364;2023-10-31T09:08:13;12.00;99.90
23079;DHT22;11707;50.830;4.364;2023-10-31T09:10:41;12.10;99.90
23079;DHT22;11707;50.830;4.364;2023-10-31T09:13:10;12.20;99.90
23079;DHT22;11707;50.830;4.364;2023-10-31T09:15:39;12.20;99.90
23079;DHT22;11707;50.830;4.364;2023-10-31T09:18:06;12.20;99.90
23079;DHT22;11707;50.830;4.364;2023-10-31T09:20:32;12.20;99.90
23079;DHT22;11707;50.830;4.364;2023-10-31T09:22:58;12.20;99.90
23079;DHT22;11707;50.830;4.364;2023-10-31T09:25:23;12.10;99.90
23079;DHT22;11707;50.830;4.364;2023-10-31T09:27:49;12.00;99.90
23079;DHT22;11707;50.830;4.364;2023-10-31T09:30:15;12.00;99.90
23079;DHT22;11707;50.830;4.364;2023-10-31T09:32:40;12.00;99.90
23079;DHT22;11707;50.830;4.364;2023-10-31T09:35:06;12.10;99.90
23079;DHT22;11707;50.830;4.364;2023-10-31T09:37:33;12.20;99.90
23079;DHT22;11707;50.830;4.364;2023-10-31T09:40:04;12.30;99.90
23079;DHT22;11707;50.830;4.364;2023-10-31T09:42:30;12.40;99.90
23079;DHT22;11707;50.830;4.364;2023-10-31T09:44:55;12.20;99.90
23079;DHT22;11707;50.830;4.364;2023-10-31T09:47:24;12.20;99.90
23079;DHT22;11707;50.830;4.364;2023-10-31T09:49:50;12.00;99.90
23079;DHT22;11707;50.830;4.364;2023-10-31T09:52:16;12.00;99.90
23079;DHT22;11707;50.830;4.364;2023-10-31T09:54:42;11.90;99.90
23079;DHT22;11707;50.830;4.364;2023-10-31T09:57:12;12.00;99.90
23079;DHT22;11707;50.830;4.364;2023-10-31T09:59:38;12.10;99.90
23079;DHT22;11707;50.830;4.364;2023-10-31T10:02:03;12.00;99.90
23079;DHT22;11707;50.830;4.364;2023-10-31T10:04:29;12.00;99.90
23079;DHT22;11707;50.830;4.364;2023-10-31T10:07:03;11.90;99.90
23079;DHT22;11707;50.830;4.364;2023-10-31T10:09:29;12.00;99.90
23079;DHT22;11707;50.830;4.364;2023-10-31T10:12:01;12.10;99.90
23079;DHT22;11707;50.830;4.364;2023-10-31T10:14:27;12.20;99.90
23079;DHT22;11707;50.830;4.364;2023-10-31T10:17:01;12.40;99.90
23079;DHT22;11707;50.830;4.364;2023-10-31T10:19:39;12.50;99.90
23079;DHT22;11707;50.830;4.364;2023-10-31T10:22:04;12.30;99.90
23079;DHT22;11707;50.830;4.364;2023-10-31T10:24:35;12.30;99.90
23079;DHT22;11707;50.830;4.364;2023-10-31T10:27:01;12.20;99.90
23079;DHT22;11707;50.830;4.364;2023-10-31T10:29:27;12.20;99.90
23079;DHT22;11707;50.830;4.364;2023-10-31T10:31:53;12.10;99.90
23079;DHT22;11707;50.830;4.364;2023-10-31T10:34:19;12.10;99.90
23079;DHT22;11707;50.830;4.364;2023-10-31T10:36:48;12.10;99.90
23079;DHT22;11707;50.830;4.364;2023-10-31T10:39:19;12.20;99.90
23079;DHT22;11707;50.830;4.364;2023-10-31T10:41:48;12.30;99.90
23079;DHT22;11707;50.830;4.364;2023-10-31T10:44:16;12.30;99.90
23079;DHT22;11707;50.830;4.364;2023-10-31T10:46:44;12.50;99.90
23079;DHT22;11707;50.830;4.364;2023-10-31T10:49:17;12.70;99.90
23079;DHT22;11707;50.830;4.364;2023-10-31T10:51:53;12.80;99.90
23079;DHT22;11707;50.830;4.364;2023-10-31T10:57:03;12.90;99.90
23079;DHT22;11707;50.830;4.364;2023-10-31T11:02:04;12.80;99.90
23079;DHT22;11707;50.830;4.364;2023-10-31T11:04:32;12.70;99.90
23079;DHT22;11707;50.830;4.364;2023-10-31T11:06:59;12.70;99.90
23079;DHT22;11707;50.830;4.364;2023-10-31T11:09:25;12.70;99.90
23079;DHT22;11707;50.830;4.364;2023-10-31T11:11:54;12.60;99.90
23079;DHT22;11707;50.830;4.364;2023-10-31T11:14:20;12.50;99.90
23079;DHT22;11707;50.830;4.364;2023-10-31T11:16:51;12.30;99.90
23079;DHT22;11707;50.830;4.364;2023-10-31T11:19:17;12.40;99.90
23079;DHT22;11707;50.830;4.364;2023-10-31T11:22:01;12.30;99.90
23079;DHT22;11707;50.830;4.364;2023-10-31T11:24:50;12.20;99.90
23079;DHT22;11707;50.830;4.364;2023-10-31T11:27:17;12.10;99.90
23079;DHT22;11707;50.830;4.364;2023-10-31T11:29:43;12.20;99.90
23079;DHT22;11707;50.830;4.364;2023-10-31T11:32:10;12.40;99.90
23079;DHT22;11707;50.830;4.364;2023-10-31T11:34:38;12.50;99.90
23079;DHT22;11707;50.830;4.364;2023-10-31T11:37:26;12.60;99.90
23079;DHT22;11707;50.830;4.364;2023-10-31T11:40:15;12.60;99.90
23079;DHT22;11707;50.830;4.364;2023-10-31T11:42:41;12.70;99.90
23079;DHT22;11707;50.830;4.364;2023-10-31T11:45:10;12.60;99.90
23079;DHT22;11707;50.830;4.364;2023-10-31T11:47:49;12.60;99.90
23079;DHT22;11707;50.830;4.364;2023-10-31T11:50:16;12.50;99.90
23079;DHT22;11707;50.830;4.364;2023-10-31T11:52:42;12.60;99.90
23079;DHT22;11707;50.830;4.364;2023-10-31T11:55:11;12.70;99.90
23079;DHT22;11707;50.830;4.364;2023-10-31T11:57:38;12.50;99.90
23079;DHT22;11707;50.830;4.364;2023-10-31T12:00:05;12.50;99.90
23079;DHT22;11707;50.830;4.364;2023-10-31T12:02:31;12.50;99.90
23079;DHT22;11707;50.830;4.364;2023-10-31T12:05:12;12.50;99.90
23079;DHT22;11707;50.830;4.364;2023-10-31T12:07:44;12.50;99.90
23079;DHT22;11707;50.830;4.364;2023-10-31T12:10:10;12.50;99.90
23079;DHT22;11707;50.830;4.364;2023-10-31T12:12:38;12.40;99.90
23079;DHT22;11707;50.830;4.364;2023-10-31T12:15:08;12.30;99.90
23079;DHT22;11707;50.830;4.364;2023-10-31T12:17:41;12.30;99.90
23079;DHT22;11707;50.830;4.364;2023-10-31T12:20:08;12.30;99.90
23079;DHT22;11707;50.830;4.364;2023-10-31T12:22:35;12.50;99.90
23079;DHT22;11707;50.830;4.364;2023-10-31T12:25:05;12.40;99.90
23079;DHT22;11707;50.830;4.364;2023-10-31T12:30:10;12.30;99.90
23079;DHT22;11707;50.830;4.364;2023-10-31T12:32:40;12.10;99.90
23079;DHT22;11707;50.830;4.364;2023-10-31T12:35:14;12.00;99.90
23079;DHT22;11707;50.830;4.364;2023-10-31T12:37:46;12.10;99.90
23079;DHT22;11707;50.830;4.364;2023-10-31T12:40:24;12.10;99.90
23079;DHT22;11707;50.830;4.364;2023-10-31T12:42:52;12.00;99.90
23079;DHT22;11707;50.830;4.364;2023-10-31T12:45:18;12.00;99.90
23079;DHT22;11707;50.830;4.364;2023-10-31T12:47:44;12.10;99.90
23079;DHT22;11707;50.830;4.364;2023-10-31T12:50:13;12.20;99.90
23079;DHT22;11707;50.830;4.364;2023-10-31T12:55:17;12.40;99.90
23079;DHT22;11707;50.830;4.364;2023-10-31T12:57:43;12.50;99.90
23079;DHT22;11707;50.830;4.364;2023-10-31T13:00:10;12.40;99.90
23079;DHT22;11707;50.830;4.364;2023-10-31T13:02:39;12.30;99.90
23079;DHT22;11707;50.830;4.364;2023-10-31T13:05:15;12.10;99.90
23079;DHT22;11707;50.830;4.364;2023-10-31T13:07:54;12.20;99.90
23079;DHT22;11707;50.830;4.364;2023-10-31T13:10:25;12.20;99.90
23079;DHT22;11707;50.830;4.364;2023-10-31T13:12:56;12.30;99.90
23079;DHT22;11707;50.830;4.364;2023-10-31T13:15:23;12.30;99.90
23079;DHT22;11707;50.830;4.364;2023-10-31T13:17:52;12.40;99.90
23079;DHT22;11707;50.830;4.364;2023-10-31T13:20:19;12.30;99.90
23079;DHT22;11707;50.830;4.364;2023-10-31T13:22:46;12.20;99.90
23079;DHT22;11707;50.830;4.364;2023-10-31T13:25:14;12.30;99.90
23079;DHT22;11707;50.830;4.364;2023-10-31T13:27:45;12.20;99.90
23079;DHT22;11707;50.830;4.364;2023-10-31T13:30:16;12.20;99.90
23079;DHT22;11707;50.830;4.364;2023-10-31T13:32:43;12.20;99.90
23079;DHT22;11707;50.830;4.364;2023-10-31T13:35:09;12.20;99.90
23079;DHT22;11707;50.830;4.364;2023-10-31T13:37:36;12.00;99.90
23079;DHT22;11707;50.830;4.364;2023-10-31T13:40:03;12.10;99.90
23079;DHT22;11707;50.830;4.364;2023-10-31T13:42:34;12.00;99.90
23079;DHT22;11707;50.830;4.364;2023-10-31T13:45:00;12.20;99.90
23079;DHT22;11707;50.830;4.364;2023-10-31T13:47:25;12.20;99.90
23079;DHT22;11707;50.830;4.364;2023-10-31T13:49:53;12.10;99.90
23079;DHT22;11707;50.830;4.364;2023-10-31T13:52:20;12.20;99.90
23079;DHT22;11707;50.830;4.364;2023-10-31T13:54:46;12.30;99.90
23079;DHT22;11707;50.830;4.364;2023-10-31T13:57:12;12.40;99.90
23079;DHT22;11707;50.830;4.364;2023-10-31T13:59:40;12.50;99.90
23079;DHT22;11707;50.830;4.364;2023-10-31T14:02:06;12.60;99.90
23079;DHT22;11707;50.830;4.364;2023-10-31T14:04:32;12.70;99.90
23079;DHT22;11707;50.830;4.364;2023-10-31T14:06:59;12.70;99.90
23079;DHT22;11707;50.830;4.364;2023-10-31T14:09:25;12.80;99.90
23079;DHT22;11707;50.830;4.364;2023-10-31T14:11:50;12.80;99.90
23079;DHT22;11707;50.830;4.364;2023-10-31T14:14:16;12.80;99.90
23079;DHT22;11707;50.830;4.364;2023-10-31T14:16:42;12.80;99.90
23079;DHT22;11707;50.830;4.364;2023-10-31T14:19:11;12.90;99.90
23079;DHT22;11707;50.830;4.364;2023-10-31T14:21:39;13.10;99.90
23079;DHT22;11707;50.830;4.364;2023-10-31T14:24:05;13.00;99.90
23079;DHT22;11707;50.830;4.364;2023-10-31T14:26:34;13.00;99.90
23079;DHT22;11707;50.830;4.364;2023-10-31T14:29:04;13.00;99.90
23079;DHT22;11707;50.830;4.364;2023-10-31T14:31:29;13.00;99.90
23079;DHT22;11707;50.830;4.364;2023-10-31T14:33:55;13.00;99.90
23079;DHT22;11707;50.830;4.364;2023-10-31T14:36:21;13.00;99.90
23079;DHT22;11707;50.830;4.364;2023-10-31T14:38:46;13.20;99.90
23079;DHT22;11707;50.830;4.364;2023-10-31T14:41:12;13.20;99.90
23079;DHT22;11707;50.830;4.364;2023-10-31T14:43:39;13.20;99.90
23079;DHT22;11707;50.830;4.364;2023-10-31T14:46:05;13.30;99.90
23079;DHT22;11707;50.830;4.364;2023-10-31T14:48:32;13.30;99.90
23079;DHT22;11707;50.830;4.364;2023-10-31T14:50:59;13.30;99.90
23079;DHT22;11707;50.830;4.364;2023-10-31T14:53:24;13.40;99.90
23079;DHT22;11707;50.830;4.364;2023-10-31T14:55:50;13.40;99.90
23079;DHT22;11707;50.830;4.364;2023-10-31T14:58:16;13.40;99.90
23079;DHT22;11707;50.830;4.364;2023-10-31T15:00:42;13.40;99.90
23079;DHT22;11707;50.830;4.364;2023-10-31T15:03:07;13.40;99.90
23079;DHT22;11707;50.830;4.364;2023-10-31T15:05:33;13.50;99.90
23079;DHT22;11707;50.830;4.364;2023-10-31T15:07:59;13.50;99.90
23079;DHT22;11707;50.830;4.364;2023-10-31T15:10:25;13.50;99.90
23079;DHT22;11707;50.830;4.364;2023-10-31T15:12:53;13.60;99.90
23079;DHT22;11707;50.830;4.364;2023-10-31T15:15:19;13.40;99.90
23079;DHT22;11707;50.830;4.364;2023-10-31T15:17:47;13.40;99.90
23079;DHT22;11707;50.830;4.364;2023-10-31T15:20:19;13.40;99.90
23079;DHT22;11707;50.830;4.364;2023-10-31T15:22:45;13.30;99.90
23079;DHT22;11707;50.830;4.364;2023-10-31T15:25:11;13.30;99.90
23079;DHT22;11707;50.830;4.364;2023-10-31T15:27:37;13.30;99.90
23079;DHT22;11707;50.830;4.364;2023-10-31T15:30:07;13.40;99.90
23079;DHT22;11707;50.830;4.364;2023-10-31T15:32:34;13.20;99.90
23079;DHT22;11707;50.830;4.364;2023-10-31T15:35:00;13.20;99.90
23079;DHT22;11707;50.830;4.364;2023-10-31T15:37:25;13.20;99.90
23079;DHT22;11707;50.830;4.364;2023-10-31T15:39:51;13.20;99.90